Startpagina
METAR-TAF:

METAR-TAF

Vliegvelden :

Productieplatform

L9-ff-1, Nederland

breedte: 53-36-52N, lengte: 4-57-37E, hoogte: 30 m

Actueel weer

Dit bericht is 15 minuten geleden gemaakt, om 06:55 UTC
Wind 23 kt uit het noordwesten
Temperatuur 10°C
Vochtigheid 87%
Druk 1006 hPa
Zicht 10 km of meer
Weinig wolken op 900 ft
Verspreide wolken op 1400 ft
Gebroken wolken op 2700 ft

METAR: EHMG 070655Z AUTO 32023KT 9999 FEW009 SCT014 BKN027 10/08 Q1006 W///H///

Tijdstip: 08:10 (07:10 UTC)


TAF: ontbreekt

Waarnemingen en weersverwachtingen van meer dan 4000 vliegvelden (METAR en TAF).

De beschikbare stations zijn de gele en rode punten op de kaart.

Ga met uw muis naar het station om de naam te zien.

Klik dan om waarnemingen en weersverwachtingen te zien.

kaart wijzigen: klik op de groene knoppen met een zwart kruis om in te zoomen, op de groene knop met een streepje om uit te zoomen of op de groene pijlen voor aangrenzende kaarten.


METAR-TAF: